• Join FlightAware (Why Join?)
  • Login
  • US Flag 
10:09PM EDT


 

Airport Tracker/Info


-or-


 

Live Flight TrackerFlight Track Log ✈ N777NC ✈ 08-Jul-2013 ✈ KSAV - KATL

Flight Track Log - Related Links

Times and Time Zones

All times are in EDT time to prevent confusion due to time zone crossing. See the N777NC flight status page for this flight to view local times or setup timezone preferences in your user account.

Time Position Orientation Groundspeed Altitude Reporting Facility
EDT Latitude Longitude Course Direction KTS MPH feet Rate Location/Type
06:46AM 32.1900 -81.1522 287° West 235 270 3,400  Level Jacksonville Center
06:47AM 32.2289 -81.5821 287° West  Level FlightAware Approximate
06:47AM 32.2161 -81.2253 293° West 250 288 5,200  Level Jacksonville Center
06:48AM 32.2536 -81.6799 288° West  Level FlightAware Approximate
06:48AM 32.2400 -81.3033 290° West 273 314 7,400  Level Jacksonville Center
06:49AM 32.2801 -81.7771 288° West  Level FlightAware Approximate
06:49AM 32.2661 -81.3914 289° West 280 322 9,800  Level Jacksonville Center
06:50AM 32.3027 -81.8608 287° West  Level FlightAware Approximate
06:50AM 32.2906 -81.5017 285° West 305 351 11,000  Level Jacksonville Center
06:51AM 32.3238 -81.9450 287° West  Level FlightAware Approximate
06:51AM 32.3125 -81.6167 283° West 356 410 12,900  Level Jacksonville Center
06:52AM 32.3386 -81.7172 287° West 361 415 14,800 1,680 Climbing Jacksonville Center
06:54AM 32.3900 -82.0392 281° West 383 441 18,900 1,440 Climbing Atlanta Center
06:55AM 32.4128 -82.1689 282° West 395 455 19,900 540 Climbing Atlanta Center
06:56AM 32.4439 -82.2986 286° West 408 470 20,000  Climbing Atlanta Center
06:57AM 32.4792 -82.4261 288° West 414 476 20,000  Level Atlanta Center
06:58AM 32.5078 -82.5414 286° West 394 453 20,000  Level Atlanta Center
06:59AM 32.5258 -82.6592 280° West 372 428 20,000  Level Atlanta Center
07:00AM 32.5500 -82.7672 285° West 359 413 20,000  Level Atlanta Center
07:01AM 32.5844 -82.8803 290° West 353 406 20,100  Climbing Atlanta Center
07:02AM 32.6497 -82.9633 313° West 358 412 20,000 -60 Descending Atlanta Center
07:03AM 32.7258 -83.0661 311° West 384 442 20,000  Level Atlanta Center
07:04AM 32.8019 -83.1764 309° West 400 460 20,000  Level Atlanta Center
07:05AM 32.8650 -83.2797 306° West 411 473 20,000  Level Atlanta Center
07:06AM 32.9408 -83.3828 311° West 418 481 20,000 -720 Level Atlanta Center
07:07AM 33.0103 -83.4814 310° West 413 475 18,600 -2,040 Descending Atlanta Center
07:08AM 33.0775 -83.5778 310° West 390 449 16,000 -3,060 Descending Atlanta Center
07:09AM 33.1333 -83.6667 307° West 380 437 13,500 -2,220 Descending Atlanta TRACON
07:10AM 33.2000 -83.7500 314° West 342 394 12,100 -780 Descending Atlanta TRACON
07:11AM 33.2500 -83.8167 312° West 298 343 12,000 -1,020 Descending Atlanta TRACON
07:12AM 33.3000 -83.9000 306° West 294 338 10,200 -1,440 Descending Atlanta TRACON
07:13AM 33.3500 -83.9833 306° West 267 307 9,000 -1,320 Descending Atlanta TRACON
07:14AM 33.4000 -84.0333 320° Northwest 265 305 7,500 -1,500 Descending Atlanta TRACON
07:15AM 33.4667 -84.0667 337° Northwest 260 299 6,100 -1,440 Descending Atlanta TRACON
07:16AM 33.5333 -84.1167 328° Northwest 252 290 4,500 -1,140 Descending Atlanta TRACON
07:17AM 33.5833 -84.1500 331° Northwest 227 261 3,900 -720 Descending Atlanta TRACON